createdAt,value
2018-10-04T00:00:07.719Z,13.24
2018-10-04T00:01:08.952Z,13.24
2018-10-04T00:02:10.305Z,13.19
2018-10-04T00:03:10.370Z,13.39
2018-10-04T00:04:11.441Z,13.24
2018-10-04T00:05:11.953Z,13.33
2018-10-04T00:06:12.743Z,13.24
2018-10-04T00:07:13.811Z,13.4
2018-10-04T00:08:14.621Z,13.24
2018-10-04T00:09:16.412Z,13.39
2018-10-04T00:10:17.484Z,13.23
2018-10-04T00:11:17.279Z,13.37
2018-10-04T00:12:17.788Z,13.24
2018-10-04T00:13:19.134Z,13.26
2018-10-04T00:14:19.926Z,13.33
2018-10-04T00:15:20.723Z,13.37
2018-10-04T00:16:21.793Z,13.24
2018-10-04T00:17:22.414Z,13.36
2018-10-04T00:18:22.203Z,13.21
2018-10-04T00:19:22.997Z,13.26
2018-10-04T00:20:23.788Z,13.17
2018-10-04T00:21:24.855Z,13.31
2018-10-04T00:22:25.641Z,13.17
2018-10-04T00:23:26.437Z,13.26
2018-10-04T00:24:28.058Z,13.19
2018-10-04T00:25:28.572Z,13.19
2018-10-04T00:26:29.642Z,13.24
2018-10-04T00:27:29.877Z,13.31
2018-10-04T00:28:30.664Z,13.23
2018-10-04T00:29:31.563Z,13.2
2018-10-04T00:30:33.083Z,13.11
2018-10-04T00:31:33.429Z,13.2
2018-10-04T00:32:33.942Z,13.24
2018-10-04T00:33:35.563Z,13.16
2018-10-04T00:34:35.912Z,13.08
2018-10-04T00:35:36.979Z,13.09
2018-10-04T00:36:37.770Z,13.01
2018-10-04T00:37:38.842Z,12.95
2018-10-04T00:38:39.913Z,12.99
2018-10-04T00:39:40.700Z,12.95
2018-10-04T00:40:42.493Z,12.93
2018-10-04T00:41:43.008Z,12.95
2018-10-04T00:42:43.798Z,12.98
2018-10-04T00:43:44.867Z,13.02
2018-10-04T00:44:45.764Z,13.03
2018-10-04T00:45:46.615Z,13.11
2018-10-04T00:46:46.736Z,13.03
2018-10-04T00:47:47.090Z,13.11
2018-10-04T00:48:48.881Z,13.05
2018-10-04T00:49:49.493Z,13.03
2018-10-04T00:50:51.010Z,12.98
2018-10-04T00:51:51.509Z,13.01
2018-10-04T00:52:53.296Z,13.02
2018-10-04T00:53:53.638Z,13.12
2018-10-04T00:54:54.973Z,13.11
2018-10-04T00:55:55.481Z,13.06
2018-10-04T00:56:56.268Z,13.01
2018-10-04T00:57:58.061Z,12.8
2018-10-04T00:58:58.050Z,12.84
2018-10-04T00:59:58.537Z,12.83
2018-10-04T01:00:44.597Z,12.78
2018-10-04T01:01:45.404Z,12.8
2018-10-04T01:02:47.021Z,12.87
2018-10-04T01:03:47.091Z,12.98
2018-10-04T01:04:48.159Z,12.99
2018-10-04T01:05:49.333Z,13.03
2018-10-04T01:06:49.412Z,13.01
2018-10-04T01:07:50.196Z,13.01
2018-10-04T01:08:51.257Z,13.09
2018-10-04T01:09:52.321Z,13.08
2018-10-04T01:10:53.383Z,13.05
2018-10-04T01:11:54.478Z,12.98
2018-10-04T01:12:55.263Z,13.06
2018-10-04T01:13:55.779Z,13.01
2018-10-04T01:14:56.843Z,13.06
2018-10-04T01:15:58.184Z,13.13
2018-10-04T01:16:58.973Z,13.01
2018-10-04T01:17:59.481Z,12.94
2018-10-04T01:19:00.541Z,12.78
2018-10-04T01:20:01.057Z,12.83
2018-10-04T01:21:01.851Z,12.86
2018-10-04T01:22:03.117Z,12.78
2018-10-04T01:23:04.182Z,12.84
2018-10-04T01:24:04.969Z,12.94
2018-10-04T01:25:05.479Z,13.05
2018-10-04T01:26:06.647Z,13.01
2018-10-04T01:27:06.712Z,12.95
2018-10-04T01:28:06.947Z,13.02
2018-10-04T01:29:08.007Z,13.05
2018-10-04T01:30:09.349Z,13.05
2018-10-04T01:31:09.692Z,12.99
2018-10-04T01:32:09.922Z,12.91
2018-10-04T01:33:10.709Z,13.01
2018-10-04T01:34:11.217Z,13.01
2018-10-04T01:35:12.729Z,13.05
2018-10-04T01:36:12.790Z,13.17
2018-10-04T01:37:13.855Z,13.17
2018-10-04T01:38:14.365Z,13.2
2018-10-04T01:39:16.151Z,13.16
2018-10-04T01:40:16.218Z,13.17
2018-10-04T01:41:17.278Z,13.16
2018-10-04T01:42:18.814Z,13.16
2018-10-04T01:43:20.157Z,13.13
2018-10-04T01:44:20.943Z,13.23
2018-10-04T01:45:22.170Z,13.17
2018-10-04T01:46:23.677Z,13.23
2018-10-04T01:47:24.464Z,13.17
2018-10-04T01:48:24.527Z,13.17
2018-10-04T01:49:25.868Z,13.24
2018-10-04T01:50:26.795Z,13.12
2018-10-04T01:51:26.858Z,13.19
2018-10-04T01:52:27.649Z,13.08
2018-10-04T01:53:28.437Z,13.06
2018-10-04T01:54:28.945Z,13.17
2018-10-04T01:55:30.291Z,13.17
2018-10-04T01:56:30.353Z,13.16
2018-10-04T01:57:30.419Z,13.16
2018-10-04T01:58:32.205Z,13.12
2018-10-04T01:59:33.278Z,13.13
2018-10-04T02:00:34.624Z,13.12
2018-10-04T02:01:35.690Z,13.05
2018-10-04T02:02:36.501Z,13.03
2018-10-04T02:03:37.624Z,12.98
2018-10-04T02:04:38.135Z,13.02
2018-10-04T02:05:38.476Z,12.99
2018-10-04T02:06:39.266Z,12.9
2018-10-04T02:07:41.158Z,12.81
2018-10-04T02:08:41.504Z,12.78
2018-10-04T02:09:42.398Z,12.83
2018-10-04T02:10:43.182Z,12.78
2018-10-04T02:11:43.410Z,12.65
2018-10-04T02:12:44.644Z,12.69
2018-10-04T02:13:45.431Z,12.65
2018-10-04T02:14:46.495Z,12.63
2018-10-04T02:15:46.839Z,12.66
2018-10-04T02:16:47.626Z,12.76
2018-10-04T02:17:47.970Z,12.65
2018-10-04T02:18:49.038Z,12.66
2018-10-04T02:19:49.660Z,12.63
2018-10-04T02:20:50.721Z,12.68
2018-10-04T02:21:52.065Z,12.63
2018-10-04T02:22:52.023Z,12.69
2018-10-04T02:23:53.254Z,12.63
2018-10-04T02:24:54.596Z,12.68
2018-10-04T02:25:55.102Z,12.65
2018-10-04T02:26:56.446Z,12.63
2018-10-04T02:27:57.231Z,12.65
2018-10-04T02:28:58.016Z,12.66
2018-10-04T02:29:59.633Z,12.66
2018-10-04T02:30:59.982Z,12.65
2018-10-04T02:32:00.339Z,12.54
2018-10-04T02:33:01.478Z,12.57
2018-10-04T02:34:01.824Z,12.57
2018-10-04T02:35:03.175Z,12.55
2018-10-04T02:36:04.238Z,12.57
2018-10-04T02:37:05.021Z,12.58
2018-10-04T02:38:05.809Z,12.54
2018-10-04T02:39:06.035Z,12.45
2018-10-04T02:40:07.378Z,12.43
2018-10-04T02:41:07.885Z,12.47
2018-10-04T02:42:08.394Z,12.36
2018-10-04T02:43:09.095Z,12.36
2018-10-04T02:44:09.719Z,12.32
2018-10-04T02:45:11.116Z,12.33
2018-10-04T02:46:11.736Z,12.35
2018-10-04T02:47:11.801Z,12.35
2018-10-04T02:48:12.633Z,12.32
2018-10-04T02:49:13.423Z,12.39
2018-10-04T02:50:14.046Z,12.33
2018-10-04T02:51:14.834Z,12.35
2018-10-04T02:52:15.618Z,12.32
2018-10-04T02:53:17.124Z,12.36
2018-10-04T02:54:17.351Z,12.33
2018-10-04T02:55:18.995Z,12.23
2018-10-04T02:56:19.614Z,12.18
2018-10-04T02:57:20.404Z,12.17
2018-10-04T02:58:21.633Z,12.07
2018-10-04T02:59:22.697Z,12.11
2018-10-04T03:00:22.762Z,12.18
2018-10-04T03:01:24.109Z,12.11
2018-10-04T03:02:24.454Z,12.08
2018-10-04T03:03:25.534Z,12.12
2018-10-04T03:04:26.882Z,12.08
2018-10-04T03:05:27.511Z,12.11
2018-10-04T03:06:28.853Z,12.2
2018-10-04T03:07:28.915Z,12.07
2018-10-04T03:08:29.992Z,12.05
2018-10-04T03:09:30.501Z,12.03
2018-10-04T03:10:31.564Z,11.96
2018-10-04T03:11:31.353Z,11.91
2018-10-04T03:12:32.972Z,11.88
2018-10-04T03:13:33.620Z,11.95
2018-10-04T03:14:33.849Z,11.91
2018-10-04T03:15:35.190Z,11.96
2018-10-04T03:16:36.535Z,11.89
2018-10-04T03:17:37.321Z,11.85
2018-10-04T03:18:37.684Z,11.91
2018-10-04T03:19:38.022Z,11.89
2018-10-04T03:20:38.812Z,11.81
2018-10-04T03:21:39.871Z,11.96
2018-10-04T03:22:40.935Z,11.93
2018-10-04T03:23:41.750Z,11.91
2018-10-04T03:24:43.096Z,11.93
2018-10-04T03:25:43.164Z,11.91
2018-10-04T03:26:44.226Z,11.86
2018-10-04T03:27:45.016Z,11.91
2018-10-04T03:28:45.631Z,11.96
2018-10-04T03:29:45.420Z,11.89
2018-10-04T03:30:46.760Z,11.91
2018-10-04T03:31:47.963Z,11.86
2018-10-04T03:32:48.333Z,11.77
2018-10-04T03:33:49.588Z,11.67
2018-10-04T03:34:49.662Z,11.7
2018-10-04T03:35:50.744Z,11.7
2018-10-04T03:36:52.362Z,11.71
2018-10-04T03:37:52.156Z,11.55
2018-10-04T03:38:53.506Z,11.6
2018-10-04T03:39:54.575Z,11.56
2018-10-04T03:40:55.082Z,11.65
2018-10-04T03:41:56.147Z,11.65
2018-10-04T03:42:56.488Z,11.59
2018-10-04T03:43:57.318Z,11.62
2018-10-04T03:44:58.112Z,11.67
2018-10-04T03:45:58.454Z,11.67
2018-10-04T03:46:59.521Z,11.7
2018-10-04T03:48:01.301Z,11.62
2018-10-04T03:49:02.361Z,11.63
2018-10-04T03:50:02.880Z,11.63
2018-10-04T03:51:03.944Z,11.65
2018-10-04T03:52:04.837Z,11.62
2018-10-04T03:53:05.627Z,11.63
2018-10-04T03:54:06.634Z,11.67
2018-10-04T03:55:06.430Z,11.71
2018-10-04T03:56:06.504Z,11.71
2018-10-04T03:57:07.588Z,11.7
2018-10-04T03:58:08.093Z,11.76
2018-10-04T03:59:08.604Z,11.83
2018-10-04T04:00:10.233Z,11.74
2018-10-04T04:01:11.572Z,11.86
2018-10-04T04:02:11.917Z,11.85
2018-10-04T04:03:12.430Z,11.81
2018-10-04T04:04:13.298Z,11.78
2018-10-04T04:05:13.352Z,11.86
2018-10-04T04:06:14.139Z,11.81
2018-10-04T04:07:15.652Z,11.86
2018-10-04T04:08:16.549Z,11.89
2018-10-04T04:09:17.058Z,11.89
2018-10-04T04:10:18.117Z,12
2018-10-04T04:11:18.768Z,11.99
2018-10-04T04:12:19.558Z,11.89
2018-10-04T04:13:20.071Z,11.97
2018-10-04T04:14:21.015Z,11.93
2018-10-04T04:15:22.115Z,12
2018-10-04T04:16:23.179Z,11.99
2018-10-04T04:17:23.805Z,11.93
2018-10-04T04:18:24.142Z,11.96
2018-10-04T04:19:24.205Z,11.88
2018-10-04T04:20:24.898Z,11.89
2018-10-04T04:21:26.256Z,11.89
2018-10-04T04:22:27.435Z,11.85
2018-10-04T04:23:28.247Z,11.83
2018-10-04T04:24:28.480Z,11.85
2018-10-04T04:25:28.712Z,11.86
2018-10-04T04:26:29.219Z,11.83
2018-10-04T04:27:30.004Z,11.88
2018-10-04T04:28:30.800Z,11.88
2018-10-04T04:29:31.859Z,11.78
2018-10-04T04:30:32.894Z,11.8
2018-10-04T04:31:33.872Z,11.83
2018-10-04T04:32:34.490Z,11.74
2018-10-04T04:33:35.279Z,11.86
2018-10-04T04:34:36.366Z,11.81
2018-10-04T04:35:36.878Z,11.88
2018-10-04T04:36:37.942Z,11.81
2018-10-04T04:37:38.573Z,11.91
2018-10-04T04:38:38.911Z,11.88
2018-10-04T04:39:40.258Z,11.95
2018-10-04T04:40:41.786Z,11.86
2018-10-04T04:41:42.533Z,11.97
2018-10-04T04:42:43.874Z,11.97
2018-10-04T04:43:44.935Z,11.97
2018-10-04T04:44:46.000Z,11.93
2018-10-04T04:45:47.058Z,11.88
2018-10-04T04:46:48.482Z,11.91
2018-10-04T04:47:49.280Z,11.95
2018-10-04T04:48:49.799Z,12.02
2018-10-04T04:49:50.310Z,11.88
2018-10-04T04:50:51.372Z,11.95
2018-10-04T04:51:52.588Z,11.93
2018-10-04T04:52:53.819Z,11.83
2018-10-04T04:53:54.105Z,11.78
2018-10-04T04:54:54.618Z,11.76
2018-10-04T04:55:55.403Z,11.71
2018-10-04T04:56:56.022Z,11.78
2018-10-04T04:57:56.145Z,11.67
2018-10-04T04:58:56.704Z,11.67
2018-10-04T04:59:57.058Z,11.63
2018-10-04T05:00:58.400Z,11.65
2018-10-04T05:01:59.022Z,11.59
2018-10-04T05:02:59.083Z,11.56
2018-10-04T05:03:59.593Z,11.6
2018-10-04T05:05:00.822Z,11.53
2018-10-04T05:06:02.257Z,11.59
2018-10-04T05:07:02.722Z,11.59
2018-10-04T05:08:02.792Z,11.62
2018-10-04T05:09:04.413Z,11.58
2018-10-04T05:10:05.030Z,11.68
2018-10-04T05:11:05.260Z,11.56
2018-10-04T05:12:06.047Z,11.6
2018-10-04T05:13:06.836Z,11.67
2018-10-04T05:14:07.350Z,11.58
2018-10-04T05:15:08.444Z,11.58
2018-10-04T05:16:11.499Z,11.58
2018-10-04T05:17:11.183Z,11.63
2018-10-04T05:18:12.551Z,11.59
2018-10-04T05:19:13.616Z,11.6
2018-10-04T05:20:13.956Z,11.71
2018-10-04T05:21:14.463Z,11.59
2018-10-04T05:22:15.824Z,11.74
2018-10-04T05:23:16.974Z,11.62
2018-10-04T05:24:17.594Z,11.58
2018-10-04T05:25:18.110Z,11.62
2018-10-04T05:26:19.171Z,11.59
2018-10-04T05:27:19.680Z,11.55
2018-10-04T05:28:20.474Z,11.49
2018-10-04T05:29:21.548Z,11.58
2018-10-04T05:30:22.054Z,11.52
2018-10-04T05:31:23.120Z,11.53
2018-10-04T05:32:24.188Z,11.59
2018-10-04T05:33:25.261Z,11.58
2018-10-04T05:34:25.931Z,11.55
2018-10-04T05:35:26.883Z,11.58
2018-10-04T05:36:27.523Z,11.55
2018-10-04T05:37:28.934Z,11.63
2018-10-04T05:38:29.903Z,11.62
2018-10-04T05:39:29.968Z,11.6
2018-10-04T05:40:30.483Z,11.56
2018-10-04T05:41:30.992Z,11.49
2018-10-04T05:42:31.784Z,11.41
2018-10-04T05:43:32.574Z,11.44
2018-10-04T05:44:33.919Z,11.43
2018-10-04T05:45:35.051Z,11.55
2018-10-04T05:46:36.116Z,11.55
2018-10-04T05:47:37.292Z,11.52
2018-10-04T05:48:38.401Z,11.52
2018-10-04T05:49:39.428Z,11.56
2018-10-04T05:50:39.971Z,11.53
2018-10-04T05:51:41.285Z,11.59
2018-10-04T05:52:41.987Z,11.49
2018-10-04T05:53:42.175Z,11.56
2018-10-04T05:54:43.519Z,11.49
2018-10-04T05:55:44.636Z,11.59
2018-10-04T05:56:44.956Z,11.44
2018-10-04T05:57:46.328Z,11.4
2018-10-04T05:58:47.469Z,11.4
2018-10-04T05:59:48.612Z,11.4
2018-10-04T06:00:49.127Z,11.44
2018-10-04T06:01:49.961Z,11.48
2018-10-04T06:02:51.578Z,11.53
2018-10-04T06:03:52.089Z,11.51
2018-10-04T06:04:54.661Z,11.44
2018-10-04T06:05:54.933Z,11.48
2018-10-04T06:06:56.303Z,11.45
2018-10-04T06:07:56.029Z,11.45
2018-10-04T06:08:56.540Z,11.55
2018-10-04T06:09:57.169Z,11.49
2018-10-04T06:10:57.768Z,11.59
2018-10-04T06:11:59.164Z,11.59
2018-10-04T06:13:00.543Z,11.59
2018-10-04T06:14:01.608Z,11.67
2018-10-04T06:15:03.491Z,11.62
2018-10-04T06:16:03.221Z,11.63
2018-10-04T06:17:04.573Z,11.59
2018-10-04T06:18:04.091Z,11.62
2018-10-04T06:19:04.879Z,11.71
2018-10-04T06:20:05.419Z,11.71
2018-10-04T06:21:07.040Z,11.67
2018-10-04T06:22:07.782Z,11.65
2018-10-04T06:23:08.568Z,11.65
2018-10-04T06:24:09.912Z,11.63
2018-10-04T06:25:09.985Z,11.63
2018-10-04T06:26:10.775Z,11.65
2018-10-04T06:27:10.841Z,11.68
2018-10-04T06:28:12.470Z,11.63
2018-10-04T06:29:12.635Z,11.68
2018-10-04T06:30:13.142Z,11.71
2018-10-04T06:31:13.935Z,11.78
2018-10-04T06:32:15.000Z,11.8
2018-10-04T06:33:15.511Z,11.74
2018-10-04T06:34:17.129Z,11.83
2018-10-04T06:35:17.634Z,11.8
2018-10-04T06:36:17.496Z,11.8
2018-10-04T06:37:18.734Z,11.73
2018-10-04T06:38:19.969Z,11.73
2018-10-04T06:39:20.480Z,11.76
2018-10-04T06:40:21.993Z,11.76
2018-10-04T06:41:23.057Z,11.8
2018-10-04T06:42:24.401Z,11.85
2018-10-04T06:43:25.470Z,11.88
2018-10-04T06:44:25.982Z,11.88
2018-10-04T06:45:27.055Z,11.86
2018-10-04T06:46:28.429Z,11.89
2018-10-04T06:47:28.783Z,11.89
2018-10-04T06:48:28.989Z,11.88
2018-10-04T06:49:30.352Z,12
2018-10-04T06:50:30.438Z,12.08
2018-10-04T06:51:31.760Z,12.55
2018-10-04T06:52:32.564Z,13.19
2018-10-04T06:53:33.285Z,13.73
2018-10-04T06:54:33.505Z,14.2
2018-10-04T06:55:34.990Z,14.56
2018-10-04T06:56:34.674Z,14.96
2018-10-04T06:57:36.050Z,15.18
2018-10-04T06:58:36.872Z,15.45
2018-10-04T06:59:37.956Z,15.5
2018-10-04T07:00:39.028Z,15.45
2018-10-04T07:01:39.567Z,15.57
2018-10-04T07:02:40.636Z,15.75
2018-10-04T07:03:42.535Z,15.9
2018-10-04T07:04:42.249Z,15.99
2018-10-04T07:05:43.041Z,16.13
2018-10-04T07:06:43.291Z,16.4
2018-10-04T07:07:44.082Z,16.54
2018-10-04T07:08:45.723Z,16.44
2018-10-04T07:09:47.071Z,16.54
2018-10-04T07:10:48.602Z,16.62
2018-10-04T07:11:49.380Z,16.41
2018-10-04T07:12:50.636Z,16.28
2018-10-04T07:13:50.987Z,16.05
2018-10-04T07:14:51.223Z,15.98
2018-10-04T07:15:52.570Z,15.94
2018-10-04T07:16:53.373Z,15.83
2018-10-04T07:17:54.170Z,15.9
2018-10-04T07:18:54.256Z,15.96
2018-10-04T07:19:55.494Z,16.09
2018-10-04T07:20:56.466Z,16.12
2018-10-04T07:21:57.172Z,15.98
2018-10-04T07:22:57.964Z,16.06
2018-10-04T07:23:58.485Z,16.16
2018-10-04T07:24:59.283Z,16.21
2018-10-04T07:26:00.076Z,16.26
2018-10-04T07:27:01.331Z,16.08
2018-10-04T07:28:02.400Z,16.02
2018-10-04T07:29:03.222Z,15.92
2018-10-04T07:30:04.572Z,15.67
2018-10-04T07:31:05.090Z,15.47
2018-10-04T07:32:05.881Z,15.41
2018-10-04T07:33:07.184Z,15.65
2018-10-04T07:34:07.634Z,15.48
2018-10-04T07:35:08.546Z,15.29
2018-10-04T07:36:08.629Z,15.3
2018-10-04T07:37:10.291Z,15.43
2018-10-04T07:38:11.287Z,15.43
2018-10-04T07:39:12.082Z,15.36
2018-10-04T07:40:13.155Z,15.48
2018-10-04T07:41:13.237Z,15.63
2018-10-04T07:42:14.950Z,15.57
2018-10-04T07:43:15.692Z,15.08
2018-10-04T07:44:15.939Z,14.73
2018-10-04T07:45:16.846Z,14.9
2018-10-04T07:46:20.428Z,14.99
2018-10-04T07:47:18.752Z,15.02
2018-10-04T07:48:19.820Z,15.1
2018-10-04T07:49:20.337Z,15.18
2018-10-04T07:50:21.738Z,15.18
2018-10-04T07:51:21.919Z,15.27
2018-10-04T07:52:23.271Z,15.44
2018-10-04T07:53:23.893Z,15.55
2018-10-04T07:54:24.365Z,15.59
2018-10-04T07:55:25.509Z,15.59
2018-10-04T07:56:27.718Z,15.62
2018-10-04T07:57:27.738Z,15.66
2018-10-04T07:58:29.305Z,15.66
2018-10-04T07:59:29.316Z,15.7
2018-10-04T08:00:30.307Z,15.65
2018-10-04T08:01:31.161Z,15.57
2018-10-04T08:02:31.719Z,15.57
2018-10-04T08:03:32.464Z,15.51
2018-10-04T08:04:32.704Z,15.41
2018-10-04T08:05:33.496Z,15.07
2018-10-04T08:06:35.733Z,14.71
2018-10-04T08:07:35.217Z,14.99
2018-10-04T08:08:36.007Z,15.04
2018-10-04T08:09:37.483Z,15.07
2018-10-04T08:10:38.462Z,15.17
2018-10-04T08:11:39.288Z,15.25
2018-10-04T08:12:40.532Z,15.25
2018-10-04T08:13:41.362Z,15.25
2018-10-04T08:14:42.886Z,15.15
2018-10-04T08:15:44.121Z,14.99
2018-10-04T08:16:44.912Z,14.99
2018-10-04T08:17:45.883Z,15.04
2018-10-04T08:18:46.674Z,14.77
2018-10-04T08:19:47.478Z,14.81
2018-10-04T08:20:48.275Z,14.87
2018-10-04T08:21:50.355Z,15.12
2018-10-04T08:22:50.424Z,15.12
2018-10-04T08:23:51.215Z,15.19
2018-10-04T08:24:51.963Z,15.17
2018-10-04T08:25:53.189Z,15.17
2018-10-04T08:26:53.186Z,15.3
2018-10-04T08:27:53.979Z,15.12
2018-10-04T08:28:55.119Z,15.04
2018-10-04T08:29:55.342Z,15.02
2018-10-04T08:30:56.422Z,14.71
2018-10-04T08:31:56.215Z,14.53
2018-10-04T08:32:57.561Z,14.49
2018-10-04T08:33:58.914Z,14.41
2018-10-04T08:35:00.359Z,14.44
2018-10-04T08:36:00.769Z,14.41
2018-10-04T08:37:01.283Z,14.4
2018-10-04T08:38:02.107Z,14.53
2018-10-04T08:39:02.900Z,14.86
2018-10-04T08:40:03.248Z,14.87
2018-10-04T08:41:04.325Z,15.17
2018-10-04T08:42:05.307Z,15.39
2018-10-04T08:43:05.981Z,15.41
2018-10-04T08:44:07.218Z,15.36
2018-10-04T08:45:08.577Z,15.27
2018-10-04T08:46:09.371Z,15.48
2018-10-04T08:47:09.887Z,15.48
2018-10-04T08:48:11.315Z,15.55
2018-10-04T08:49:11.534Z,15.43
2018-10-04T08:50:12.049Z,15.45
2018-10-04T08:51:13.896Z,15.37
2018-10-04T08:52:13.978Z,15.27
2018-10-04T08:53:14.773Z,15.27
2018-10-04T08:54:16.122Z,15.22
2018-10-04T08:55:16.480Z,15.27
2018-10-04T08:56:16.605Z,15.3
2018-10-04T08:57:16.843Z,15.14
2018-10-04T08:58:17.807Z,15.18
2018-10-04T08:59:18.631Z,15.1
2018-10-04T09:00:19.147Z,15.12
2018-10-04T09:01:20.216Z,15.14
2018-10-04T09:02:20.288Z,15.27
2018-10-04T09:03:21.084Z,15.19
2018-10-04T09:04:22.435Z,15.45
2018-10-04T09:05:23.062Z,15.59
2018-10-04T09:06:24.134Z,15.5
2018-10-04T09:07:26.101Z,15.72
2018-10-04T09:08:25.564Z,15.75
2018-10-04T09:09:27.080Z,15.69
2018-10-04T09:10:27.877Z,15.66
2018-10-04T09:11:29.446Z,15.78
2018-10-04T09:12:30.794Z,15.8
2018-10-04T09:13:32.145Z,15.78
2018-10-04T09:14:32.211Z,15.8
2018-10-04T09:15:33.280Z,15.8
2018-10-04T09:16:33.803Z,15.85
2018-10-04T09:17:34.872Z,15.94
2018-10-04T09:18:35.699Z,15.99
2018-10-04T09:19:36.770Z,16.06
2018-10-04T09:20:37.288Z,16.06
2018-10-04T09:21:38.641Z,16.22
2018-10-04T09:22:39.157Z,16.08
2018-10-04T09:23:39.954Z,15.81
2018-10-04T09:24:41.026Z,15.72
2018-10-04T09:25:41.544Z,15.66
2018-10-04T09:26:42.613Z,15.65
2018-10-04T09:27:42.684Z,15.59
2018-10-04T09:28:43.527Z,15.47
2018-10-04T09:29:44.109Z,15.41
2018-10-04T09:30:45.181Z,15.51
2018-10-04T09:31:46.004Z,15.52
2018-10-04T09:32:46.798Z,15.47
2018-10-04T09:33:48.038Z,15.5
2018-10-04T09:34:49.109Z,15.65
2018-10-04T09:35:49.346Z,15.73
2018-10-04T09:36:51.168Z,15.85
2018-10-04T09:37:51.961Z,15.99
2018-10-04T09:38:52.215Z,15.98
2018-10-04T09:39:52.564Z,16.06
2018-10-04T09:40:53.078Z,16.18
2018-10-04T09:41:53.598Z,16.4
2018-10-04T09:42:54.989Z,16.5
2018-10-04T09:43:55.061Z,16.57
2018-10-04T09:44:55.298Z,16.77
2018-10-04T09:45:56.091Z,17.1
2018-10-04T09:46:56.890Z,17.69
2018-10-04T09:47:57.682Z,18.19
2018-10-04T09:48:58.599Z,18.52
2018-10-04T09:49:59.571Z,18.73
2018-10-04T09:51:00.653Z,19.04
2018-10-04T09:52:01.175Z,19.23
2018-10-04T09:53:01.980Z,18.7
2018-10-04T09:54:03.655Z,18.96
2018-10-04T09:55:04.848Z,18.81
2018-10-04T09:56:04.580Z,19.3
2018-10-04T09:57:05.384Z,19.89
2018-10-04T09:58:06.461Z,19.85
2018-10-04T09:59:07.292Z,20.32
2018-10-04T10:00:07.818Z,20.6
2018-10-04T10:01:08.227Z,20.95
2018-10-04T10:02:09.928Z,21
2018-10-04T10:03:11.069Z,20.98
2018-10-04T10:04:11.788Z,20.92
2018-10-04T10:05:12.586Z,21.07
2018-10-04T10:06:13.945Z,21.15
2018-10-04T10:07:14.537Z,21.38
2018-10-04T10:08:16.038Z,21.41
2018-10-04T10:09:16.735Z,21.53
2018-10-04T10:10:17.823Z,21.63
2018-10-04T10:11:22.597Z,21.63
2018-10-04T10:12:20.033Z,21.66
2018-10-04T10:13:20.838Z,21.33
2018-10-04T10:14:22.342Z,21.5
2018-10-04T10:15:22.587Z,21.78
2018-10-04T10:16:23.667Z,21.89
2018-10-04T10:17:25.473Z,22.1
2018-10-04T10:18:26.548Z,22.28
2018-10-04T10:19:27.637Z,22.36
2018-10-04T10:20:28.440Z,22.55
2018-10-04T10:21:28.966Z,22.53
2018-10-04T10:22:30.334Z,22.58
2018-10-04T10:23:31.133Z,22.76
2018-10-04T10:24:31.706Z,22.84
2018-10-04T10:25:32.455Z,22.83
2018-10-04T10:26:33.257Z,23.11
2018-10-04T10:27:33.786Z,23.23
2018-10-04T10:28:34.592Z,23.26
2018-10-04T10:29:35.779Z,23.37
2018-10-04T10:30:36.580Z,23.48
2018-10-04T10:31:37.576Z,23.62
2018-10-04T10:32:38.386Z,23.74
2018-10-04T10:33:38.910Z,23.56
2018-10-04T10:34:40.056Z,23.45
2018-10-04T10:35:40.935Z,23.39
2018-10-04T10:36:41.463Z,23.47
2018-10-04T10:37:42.556Z,23.45
2018-10-04T10:38:44.094Z,23.39
2018-10-04T10:39:45.953Z,23.58
2018-10-04T10:40:45.875Z,23.51
2018-10-04T10:41:46.684Z,23.39
2018-10-04T10:42:47.491Z,22.61
2018-10-04T10:43:48.854Z,22.06
2018-10-04T10:44:49.663Z,21.4
2018-10-04T10:45:50.749Z,21.35
2018-10-04T10:46:50.831Z,21.15
2018-10-04T10:47:52.359Z,21.3
2018-10-04T10:48:52.995Z,21.45
2018-10-04T10:49:53.545Z,21.44
2018-10-04T10:50:54.817Z,21.38
2018-10-04T10:51:55.106Z,21.37
2018-10-04T10:52:55.905Z,21.38
2018-10-04T10:53:56.982Z,21.33
2018-10-04T10:54:58.060Z,21.4
2018-10-04T10:55:59.140Z,21.35
2018-10-04T10:56:59.944Z,21.38
2018-10-04T10:58:00.771Z,21.37
2018-10-04T10:59:02.319Z,21.08
2018-10-04T11:00:03.426Z,21.03
2018-10-04T11:01:04.264Z,20.98
2018-10-04T11:02:04.622Z,20.9
2018-10-04T11:03:05.867Z,20.9
2018-10-04T11:04:07.398Z,20.88
2018-10-04T11:05:08.200Z,21.03
2018-10-04T11:06:09.564Z,21.01
2018-10-04T11:07:10.642Z,21.11
2018-10-04T11:08:12.473Z,21.25
2018-10-04T11:10:51.960Z,21.37
2018-10-04T11:11:53.042Z,21.13
2018-10-04T11:12:53.395Z,21.14
2018-10-04T11:13:53.916Z,21.11
2018-10-04T11:14:55.271Z,21.1
2018-10-04T11:15:55.634Z,21.14
2018-10-04T11:16:57.455Z,20.74
2018-10-04T11:17:58.378Z,20.32
2018-10-04T11:18:57.907Z,20.21
2018-10-04T11:19:58.915Z,20.22
2018-10-04T11:20:59.852Z,20.3
2018-10-04T11:22:00.649Z,20.32
2018-10-04T11:23:01.750Z,20.27
2018-10-04T11:24:02.553Z,20.03
2018-10-04T11:25:03.356Z,19.99
2018-10-04T11:26:05.266Z,20.03
2018-10-04T11:27:05.063Z,20.03
2018-10-04T11:28:05.868Z,20.07
2018-10-04T11:29:06.946Z,20.14
2018-10-04T11:30:06.728Z,20.08
2018-10-04T11:31:07.732Z,19.9
2018-10-04T11:32:08.533Z,20.07
2018-10-04T11:33:10.880Z,19.97
2018-10-04T11:34:10.052Z,19.97
2018-10-04T11:35:10.849Z,19.84
2018-10-04T11:36:11.649Z,19.74
2018-10-04T11:37:12.719Z,19.74
2018-10-04T11:38:13.851Z,19.94
2018-10-04T11:39:14.769Z,19.77
2018-10-04T11:40:15.329Z,19.59
2018-10-04T11:41:16.576Z,19.37
2018-10-04T11:42:16.650Z,19.37
2018-10-04T11:43:17.446Z,19.41
2018-10-04T11:44:18.793Z,19.53
2018-10-04T11:45:19.421Z,19.41
2018-10-04T11:46:19.939Z,19.41
2018-10-04T11:47:21.567Z,19.37
2018-10-04T11:48:22.428Z,19.44
2018-10-04T11:49:22.629Z,19.55
2018-10-04T11:50:23.428Z,19.63
2018-10-04T11:51:23.686Z,19.7
2018-10-04T11:52:24.757Z,19.89
2018-10-04T11:53:25.659Z,19.87
2018-10-04T11:54:26.890Z,19.82
2018-10-04T11:55:27.946Z,19.9
2018-10-04T11:56:28.596Z,20.11
2018-10-04T11:57:29.113Z,20.12
2018-10-04T11:58:29.633Z,20.17
2018-10-04T11:59:30.167Z,20.26
2018-10-04T12:00:31.405Z,20.11
2018-10-04T12:01:32.877Z,20.07
2018-10-04T12:02:33.639Z,19.89
2018-10-04T12:03:34.818Z,19.87
2018-10-04T12:04:35.886Z,19.84
2018-10-04T12:05:36.683Z,19.94
2018-10-04T12:06:38.495Z,19.93
2018-10-04T12:07:38.370Z,19.93
2018-10-04T12:08:40.365Z,19.92
2018-10-04T12:09:40.086Z,19.97
2018-10-04T12:10:41.885Z,20.12
2018-10-04T12:11:42.426Z,20.18
2018-10-04T12:12:43.608Z,20.22
2018-10-04T12:13:44.736Z,20.27
2018-10-04T12:14:45.531Z,20.34
2018-10-04T12:15:47.616Z,20.5
2018-10-04T12:16:48.213Z,20.26
2018-10-04T12:17:49.287Z,20.37
2018-10-04T12:18:50.920Z,20.6
2018-10-04T12:19:51.126Z,20.75
2018-10-04T12:20:52.207Z,20.85
2018-10-04T12:21:52.917Z,20.89
2018-10-04T12:22:54.026Z,20.98
2018-10-04T12:23:54.944Z,21.07
2018-10-04T12:24:56.206Z,21.17
2018-10-04T12:25:56.534Z,21.2
2018-10-04T12:26:56.887Z,21.35
2018-10-04T12:27:58.281Z,21.41
2018-10-04T12:28:58.802Z,21.41
2018-10-04T12:29:59.976Z,21.53
2018-10-04T12:31:01.307Z,21.38
2018-10-04T12:32:01.575Z,21.41
2018-10-04T12:33:02.417Z,21.53
2018-10-04T12:34:03.496Z,21.38
2018-10-04T12:35:05.190Z,21.05
2018-10-04T12:36:06.290Z,21.19
2018-10-04T12:37:07.093Z,21.07
2018-10-04T12:38:08.170Z,20.93
2018-10-04T12:39:09.622Z,20.83
2018-10-04T12:40:09.864Z,20.8
2018-10-04T12:41:11.497Z,20.78
2018-10-04T12:42:12.760Z,20.96
2018-10-04T12:43:14.560Z,20.77
2018-10-04T12:44:15.939Z,20.78
2018-10-04T12:45:16.576Z,20.59
2018-10-04T12:46:17.225Z,20.49
2018-10-04T12:47:18.585Z,20.49
2018-10-04T12:48:19.285Z,20.46
2018-10-04T12:49:21.713Z,20.24
2018-10-04T12:50:21.746Z,20.1
2018-10-04T12:51:22.988Z,20.27
2018-10-04T12:52:24.634Z,20.44
2018-10-04T12:53:25.449Z,20.64
2018-10-04T12:54:27.169Z,20.85
2018-10-04T12:55:27.525Z,21.01
2018-10-04T12:56:27.765Z,21.11
2018-10-04T12:57:29.283Z,21.23
2018-10-04T12:58:30.095Z,20.78
2018-10-04T12:59:31.169Z,20.78
2018-10-04T13:00:32.146Z,20.53
2018-10-04T13:01:32.939Z,20.24
2018-10-04T13:02:33.561Z,20.18
2018-10-04T13:03:34.082Z,20.12
2018-10-04T13:04:35.157Z,20.18
2018-10-04T13:05:35.707Z,20.27
2018-10-04T13:06:37.171Z,20.27
2018-10-04T13:07:37.257Z,20.08